Time;durP1;ratioP1;P1;durP2;ratioP2;P2;SDS_P1;SDS_P2;PMS_P1;PMS_P2;Temp;Humidity;BMP_temperature;BMP_pressure;BME280_temperature;BME280_humidity;BME280_pressure;Samples;Min_cycle;Max_cycle;Signal;HPM_P1;HPM_P2
2022/03/01 00:01:43;;;;;;;19.05;7.45;;;2.50;97.30;;;;;;4969123;28;20035;-57
2022/03/01 00:04:09;;;;;;;12.00;6.68;;;2.30;97.80;;;;;;4970662;28;20661;-55
2022/03/01 00:06:35;;;;;;;16.95;7.75;;;2.20;98.50;;;;;;4975248;28;20047;-58
2022/03/01 00:09:00;;;;;;;14.10;7.43;;;2.10;99.10;;;;;;4975664;28;20077;-57
2022/03/01 00:11:26;;;;;;;11.20;6.53;;;2.10;99.30;;;;;;4977446;28;20473;-61
2022/03/01 00:13:51;;;;;;;13.45;7.63;;;2.00;99.50;;;;;;4975518;28;20572;-54
2022/03/01 00:16:19;;;;;;;13.57;7.28;;;1.90;99.90;;;;;;4972726;28;20038;-58
2022/03/01 00:18:45;;;;;;;11.93;6.93;;;2.00;99.90;;;;;;4975744;28;20066;-57
2022/03/01 00:21:11;;;;;;;12.88;6.90;;;1.80;99.90;;;;;;4979160;28;20050;-57
2022/03/01 00:23:37;;;;;;;12.70;6.35;;;1.80;99.90;;;;;;4976857;28;20042;-56
2022/03/01 00:26:03;;;;;;;11.25;6.97;;;1.80;99.90;;;;;;4976517;28;20034;-56
2022/03/01 00:28:28;;;;;;;12.88;7.00;;;1.80;99.90;;;;;;4979380;28;20042;-58
2022/03/01 00:30:55;;;;;;;14.00;6.88;;;1.80;99.90;;;;;;4971877;28;20030;-58
2022/03/01 00:33:20;;;;;;;15.52;7.78;;;1.80;99.90;;;;;;4969371;28;20496;-55
2022/03/01 00:35:46;;;;;;;12.68;7.65;;;1.80;99.90;;;;;;4969417;28;20038;-58
2022/03/01 00:38:11;;;;;;;13.88;7.22;;;1.80;99.90;;;;;;4978260;28;20043;-55
2022/03/01 00:40:37;;;;;;;13.43;6.75;;;1.80;99.90;;;;;;4968408;28;20800;-54
2022/03/01 00:43:02;;;;;;;11.60;7.07;;;1.80;99.90;;;;;;4968702;28;20067;-58
2022/03/01 00:45:28;;;;;;;18.67;7.70;;;1.90;99.90;;;;;;4969450;28;20133;-59
2022/03/01 00:47:53;;;;;;;13.60;6.70;;;1.80;99.90;;;;;;4970223;28;20041;-58
2022/03/01 00:50:19;;;;;;;12.43;7.13;;;1.80;99.90;;;;;;4968705;28;20067;-57
2022/03/01 00:52:45;;;;;;;12.73;6.93;;;1.90;99.90;;;;;;4968704;28;20046;-54
2022/03/01 00:55:10;;;;;;;11.65;6.35;;;1.90;99.90;;;;;;4972629;28;20035;-58
2022/03/01 00:57:36;;;;;;;14.85;7.22;;;1.90;99.90;;;;;;4949961;28;20043;-57
2022/03/01 01:00:04;;;;;;;13.57;7.32;;;1.90;99.90;;;;;;4973801;28;20048;-58
2022/03/01 01:02:29;;;;;;;12.95;6.50;;;2.00;99.90;;;;;;4977513;28;20050;-57
2022/03/01 01:04:55;;;;;;;14.15;6.43;;;2.00;99.90;;;;;;4979377;28;20038;-59
2022/03/01 01:07:21;;;;;;;11.80;6.10;;;1.90;99.90;;;;;;4972521;28;20460;-53
2022/03/01 01:09:47;;;;;;;12.05;6.13;;;1.90;99.90;;;;;;4973037;28;20018;-58
2022/03/01 01:12:13;;;;;;;12.80;7.15;;;2.00;99.90;;;;;;4972223;28;20077;-56
2022/03/01 01:14:38;;;;;;;12.30;6.60;;;2.00;99.90;;;;;;4972091;28;20027;-59
2022/03/01 01:17:04;;;;;;;11.48;6.63;;;2.10;99.90;;;;;;4969072;28;20485;-58
2022/03/01 01:19:30;;;;;;;11.40;6.88;;;2.10;99.90;;;;;;4973575;28;20030;-59
2022/03/01 01:24:39;;;;;;;14.57;6.65;;;2.10;99.70;;;;;;4972054;28;20109;-58
2022/03/01 01:27:05;;;;;;;14.07;6.45;;;2.10;99.90;;;;;;4972393;28;20191;-58
2022/03/01 01:29:31;;;;;;;12.75;6.30;;;2.10;99.80;;;;;;4972222;28;20481;-53
2022/03/01 01:31:56;;;;;;;14.02;6.63;;;2.00;99.90;;;;;;4971964;28;20046;-59
2022/03/01 01:34:22;;;;;;;12.75;6.47;;;2.00;99.90;;;;;;4971538;28;20113;-59
2022/03/01 01:36:47;;;;;;;14.10;6.82;;;2.00;99.80;;;;;;4972466;28;20030;-50
2022/03/01 01:39:13;;;;;;;15.38;7.00;;;2.00;99.80;;;;;;4960861;28;20117;-59
2022/03/01 01:41:38;;;;;;;10.88;6.32;;;2.00;99.90;;;;;;4969681;28;20037;-58
2022/03/01 01:44:05;;;;;;;11.38;6.13;;;1.90;99.90;;;;;;4965479;28;20113;-53
2022/03/01 01:46:31;;;;;;;12.23;6.15;;;1.90;99.90;;;;;;4984958;28;20022;-55
2022/03/01 01:48:56;;;;;;;10.77;5.30;;;1.80;99.90;;;;;;4972585;28;20411;-57
2022/03/01 01:51:24;;;;;;;11.13;6.13;;;1.80;99.90;;;;;;4971196;28;20034;-57
2022/03/01 01:53:50;;;;;;;14.45;6.30;;;1.80;99.90;;;;;;4971599;28;20103;-58
2022/03/01 01:56:15;;;;;;;12.13;5.90;;;1.80;99.90;;;;;;4965238;28;20035;-58
2022/03/01 01:58:41;;;;;;;11.48;5.53;;;1.80;99.90;;;;;;4956661;28;20121;-57
2022/03/01 02:01:07;;;;;;;11.15;6.07;;;1.80;99.90;;;;;;4971019;28;20114;-57
2022/03/01 02:03:32;;;;;;;12.63;6.82;;;1.80;99.90;;;;;;4958525;28;20454;-55
2022/03/01 02:05:58;;;;;;;14.85;6.15;;;1.80;99.90;;;;;;4971325;28;20054;-57
2022/03/01 02:08:30;;;;;;;12.50;6.72;;;1.80;99.90;;;;;;4975429;28;20484;-55
2022/03/01 02:10:57;;;;;;;17.23;7.57;;;1.90;99.90;;;;;;4971769;28;20031;-54
2022/03/01 02:13:23;;;;;;;14.02;6.00;;;1.90;99.90;;;;;;4971798;28;20547;-58
2022/03/01 02:15:49;;;;;;;11.10;6.43;;;1.90;99.90;;;;;;4969960;28;20031;-55
2022/03/01 02:18:15;;;;;;;12.07;7.13;;;1.80;99.90;;;;;;4977716;28;20034;-57
2022/03/01 02:20:41;;;;;;;12.38;6.32;;;1.70;99.90;;;;;;4972364;28;20037;-57
2022/03/01 02:23:06;;;;;;;13.05;6.80;;;1.60;99.90;;;;;;4971348;28;20031;-59
2022/03/01 02:25:32;;;;;;;13.00;6.55;;;1.70;99.90;;;;;;4971360;28;20520;-58
2022/03/01 02:27:57;;;;;;;16.27;6.45;;;1.60;99.90;;;;;;4962796;28;20540;-56
2022/03/01 02:30:23;;;;;;;14.73;6.50;;;1.70;99.90;;;;;;4971112;28;20506;-56
2022/03/01 02:32:49;;;;;;;11.32;6.38;;;1.70;99.90;;;;;;4971543;28;20496;-58
2022/03/01 02:35:15;;;;;;;15.02;6.38;;;1.60;99.90;;;;;;4971492;28;20580;-59
2022/03/01 02:37:42;;;;;;;13.55;6.57;;;1.60;99.90;;;;;;4971536;28;20184;-57
2022/03/01 02:40:08;;;;;;;13.77;6.97;;;1.50;99.90;;;;;;4971473;28;20121;-58
2022/03/01 02:42:34;;;;;;;12.20;6.30;;;1.50;99.90;;;;;;4972484;28;20035;-57
2022/03/01 02:45:00;;;;;;;12.32;6.53;;;1.50;99.90;;;;;;4969213;28;20027;-58
2022/03/01 02:47:25;;;;;;;10.48;6.20;;;1.50;99.90;;;;;;4990406;23;20980;-60
2022/03/01 02:49:51;;;;;;;10.85;6.20;;;1.60;99.90;;;;;;4973687;28;20042;-58
2022/03/01 02:52:16;;;;;;;13.98;5.93;;;1.60;99.90;;;;;;4968318;28;20046;-60
2022/03/01 02:54:42;;;;;;;13.68;6.38;;;1.60;99.90;;;;;;4960904;28;20031;-60
2022/03/01 02:57:07;;;;;;;12.88;6.10;;;1.50;99.90;;;;;;4968329;28;20023;-59
2022/03/01 02:59:33;;;;;;;14.85;5.97;;;1.50;99.90;;;;;;4959871;28;20038;-60
2022/03/01 03:01:58;;;;;;;15.13;6.95;;;1.50;99.90;;;;;;4970386;28;20035;-62
2022/03/01 03:04:24;;;;;;;12.02;6.03;;;1.40;99.90;;;;;;4969406;28;20027;-59
2022/03/01 03:06:50;;;;;;;11.85;6.82;;;1.40;99.90;;;;;;4967321;28;20126;-58
2022/03/01 03:09:16;;;;;;;11.07;5.65;;;1.40;99.90;;;;;;4963870;28;20050;-58
2022/03/01 03:11:43;;;;;;;14.52;6.80;;;1.40;99.90;;;;;;4960253;28;20020;-60
2022/03/01 03:14:09;;;;;;;12.45;6.78;;;1.40;99.90;;;;;;4953303;28;20131;-60
2022/03/01 03:16:35;;;;;;;13.32;6.25;;;1.30;99.90;;;;;;4962150;28;20063;-60
2022/03/01 03:19:01;;;;;;;11.48;7.20;;;1.20;99.90;;;;;;4962496;28;20062;-58
2022/03/01 03:21:27;;;;;;;14.45;7.05;;;1.10;99.90;;;;;;4963880;28;20035;-60
2022/03/01 03:23:52;;;;;;;11.93;5.88;;;1.10;99.90;;;;;;4967930;28;20031;-60
2022/03/01 03:26:18;;;;;;;16.40;6.20;;;1.00;99.90;;;;;;4963467;28;20042;-60
2022/03/01 03:28:43;;;;;;;15.93;6.85;;;1.00;99.90;;;;;;4969630;28;20034;-60
2022/03/01 03:31:09;;;;;;;13.15;6.28;;;1.00;99.90;;;;;;4963380;28;20026;-61
2022/03/01 03:33:34;;;;;;;13.68;6.15;;;1.10;99.90;;;;;;4961934;28;20050;-59
2022/03/01 03:36:00;;;;;;;11.90;5.80;;;1.10;99.90;;;;;;4970668;28;20031;-61
2022/03/01 03:38:26;;;;;;;12.80;5.90;;;1.30;99.90;;;;;;4970283;28;20031;-63
2022/03/01 03:40:52;;;;;;;12.82;6.93;;;1.30;99.90;;;;;;4960072;28;20159;-60
2022/03/01 03:43:19;;;;;;;12.65;6.55;;;1.30;99.90;;;;;;4967013;28;20485;-60
2022/03/01 03:45:45;;;;;;;15.57;6.65;;;1.30;99.90;;;;;;4967655;28;20481;-60
2022/03/01 03:48:11;;;;;;;11.70;6.15;;;1.30;99.90;;;;;;4969347;28;20579;-59
2022/03/01 03:50:37;;;;;;;15.05;6.30;;;1.30;99.90;;;;;;4957487;28;20050;-60
2022/03/01 03:53:03;;;;;;;15.25;7.00;;;1.30;99.90;;;;;;4956453;28;20031;-60
2022/03/01 03:55:28;;;;;;;12.93;5.80;;;1.30;99.90;;;;;;4955336;28;20023;-60
2022/03/01 03:57:54;;;;;;;10.73;6.03;;;1.30;99.90;;;;;;4956945;28;20443;-58
2022/03/01 04:00:20;;;;;;;17.65;7.55;;;1.30;99.90;;;;;;4964613;28;20035;-59
2022/03/01 04:02:47;;;;;;;16.20;6.93;;;1.30;99.90;;;;;;4953101;28;20043;-60
2022/03/01 04:05:15;;;;;;;12.15;6.70;;;1.30;99.90;;;;;;4970224;28;20506;-60
2022/03/01 04:07:42;;;;;;;12.48;6.20;;;1.30;99.90;;;;;;4957750;28;20058;-60
2022/03/01 04:10:09;;;;;;;14.32;6.95;;;1.40;99.90;;;;;;4962572;28;20026;-59
2022/03/01 04:12:35;;;;;;;13.23;6.53;;;1.30;99.90;;;;;;4968352;28;20030;-60
2022/03/01 04:15:00;;;;;;;14.35;6.72;;;1.30;99.90;;;;;;4963123;28;20086;-60
2022/03/01 04:17:26;;;;;;;14.65;7.22;;;1.30;99.90;;;;;;4960711;28;20030;-60
2022/03/01 04:19:52;;;;;;;11.52;6.35;;;1.30;99.90;;;;;;4965540;28;20494;-60
2022/03/01 04:22:17;;;;;;;14.52;6.10;;;1.30;99.90;;;;;;4969458;28;20038;-60
2022/03/01 04:24:43;;;;;;;14.73;7.47;;;1.30;99.90;;;;;;4963765;28;20085;-60
2022/03/01 04:27:08;;;;;;;14.20;6.78;;;1.20;99.90;;;;;;4965298;28;20031;-59
2022/03/01 04:29:34;;;;;;;13.38;7.28;;;1.20;99.90;;;;;;4969526;28;20750;-60
2022/03/01 04:32:01;;;;;;;11.00;6.40;;;1.10;99.90;;;;;;4965849;28;20473;-59
2022/03/01 04:34:27;;;;;;;15.23;7.18;;;1.10;99.90;;;;;;4969617;28;20422;-58
2022/03/01 04:36:52;;;;;;;14.82;7.13;;;1.10;99.90;;;;;;4967439;28;20034;-58
2022/03/01 04:39:18;;;;;;;13.45;6.88;;;1.10;99.90;;;;;;4965263;28;20085;-60
2022/03/01 04:41:44;;;;;;;13.30;6.78;;;1.10;99.90;;;;;;4970554;28;20030;-60
2022/03/01 04:44:10;;;;;;;13.73;6.68;;;1.10;99.90;;;;;;4969518;28;20039;-59
2022/03/01 04:46:35;;;;;;;12.77;6.25;;;1.10;99.90;;;;;;4972472;28;20141;-57
2022/03/01 04:49:02;;;;;;;16.63;7.03;;;1.10;99.90;;;;;;4962345;28;20026;-60
2022/03/01 04:51:27;;;;;;;14.85;7.90;;;1.10;99.90;;;;;;4958030;28;20031;-60
2022/03/01 04:53:53;;;;;;;16.00;6.47;;;1.10;99.90;;;;;;4956846;28;20038;-59
2022/03/01 04:56:19;;;;;;;18.02;7.88;;;1.10;99.90;;;;;;4961849;28;20035;-60
2022/03/01 04:58:45;;;;;;;13.70;6.95;;;1.20;99.90;;;;;;4972484;28;20493;-60
2022/03/01 05:01:10;;;;;;;13.90;6.28;;;1.20;99.90;;;;;;4962553;28;20069;-61
2022/03/01 05:03:36;;;;;;;14.75;6.78;;;1.20;99.90;;;;;;4969970;28;20121;-60
2022/03/01 05:06:01;;;;;;;13.00;6.50;;;1.20;99.90;;;;;;4965039;28;20801;-59
2022/03/01 05:08:30;;;;;;;19.27;6.97;;;1.20;99.90;;;;;;4969695;28;20549;-59
2022/03/01 05:10:59;;;;;;;16.35;6.95;;;1.20;99.90;;;;;;4965672;28;20067;-60
2022/03/01 05:13:25;;;;;;;15.15;7.18;;;1.30;99.90;;;;;;4960731;28;20496;-59
2022/03/01 05:15:51;;;;;;;17.35;7.18;;;1.20;99.90;;;;;;4965183;28;20110;-60
2022/03/01 05:18:16;;;;;;;16.92;7.50;;;1.20;99.90;;;;;;4976352;28;20034;-58
2022/03/01 05:20:42;;;;;;;13.52;6.72;;;1.30;99.90;;;;;;4972626;28;20527;-57
2022/03/01 05:23:08;;;;;;;18.33;6.68;;;1.30;99.90;;;;;;4975901;28;20027;-58
2022/03/01 05:25:33;;;;;;;17.73;7.22;;;1.30;99.90;;;;;;4973695;28;20040;-58
2022/03/01 05:27:59;;;;;;;14.23;7.05;;;1.30;99.90;;;;;;4965881;28;20551;-58
2022/03/01 05:30:25;;;;;;;16.70;7.50;;;1.30;99.90;;;;;;4970982;28;20035;-60
2022/03/01 05:32:51;;;;;;;17.42;7.68;;;1.30;99.90;;;;;;4973646;28;20045;-59
2022/03/01 05:35:19;;;;;;;15.55;7.72;;;1.30;99.90;;;;;;4959906;28;21901;-58
2022/03/01 05:37:49;;;;;;;15.45;8.25;;;1.30;99.90;;;;;;4972111;28;20038;-58
2022/03/01 05:40:17;;;;;;;16.50;7.55;;;1.30;99.90;;;;;;4969771;28;20572;-59
2022/03/01 05:42:43;;;;;;;13.77;7.10;;;1.20;99.90;;;;;;4958254;28;20042;-60
2022/03/01 05:45:11;;;;;;;14.77;6.75;;;1.20;99.90;;;;;;4968714;28;20432;-60
2022/03/01 05:47:37;;;;;;;16.98;7.88;;;1.20;99.90;;;;;;4972961;28;20035;-60
2022/03/01 05:50:03;;;;;;;16.00;7.40;;;1.20;99.90;;;;;;4962930;28;20042;-60
2022/03/01 05:52:29;;;;;;;16.67;7.85;;;1.20;99.90;;;;;;4967488;28;20092;-60
2022/03/01 05:54:55;;;;;;;14.23;7.18;;;1.20;99.90;;;;;;4963897;28;20038;-59
2022/03/01 05:57:24;;;;;;;19.15;8.15;;;1.20;99.90;;;;;;4968122;28;20042;-60
2022/03/01 05:59:49;;;;;;;15.70;8.52;;;1.20;99.90;;;;;;4970968;28;20501;-61
2022/03/01 06:02:15;;;;;;;18.80;7.47;;;1.20;99.90;;;;;;4971648;28;20043;-60
2022/03/01 06:04:40;;;;;;;21.20;7.03;;;1.20;99.90;;;;;;4962543;28;20035;-60
2022/03/01 06:07:06;;;;;;;16.85;7.88;;;1.20;99.90;;;;;;4969476;28;20092;-60
2022/03/01 06:09:31;;;;;;;15.85;7.30;;;1.20;99.90;;;;;;4967754;28;20086;-59
2022/03/01 06:11:57;;;;;;;16.23;8.02;;;1.30;99.90;;;;;;4954412;28;20034;-60
2022/03/01 06:14:22;;;;;;;20.05;8.00;;;1.30;99.90;;;;;;4964223;28;20027;-60
2022/03/01 06:16:48;;;;;;;16.85;7.80;;;1.40;99.90;;;;;;4979268;28;20062;-60
2022/03/01 06:19:13;;;;;;;16.75;8.65;;;1.40;99.90;;;;;;4965099;28;20035;-60
2022/03/01 06:21:39;;;;;;;15.20;8.13;;;1.40;99.90;;;;;;4962848;28;20039;-60
2022/03/01 06:24:05;;;;;;;17.80;8.32;;;1.50;99.90;;;;;;4966986;28;20042;-58
2022/03/01 06:26:31;;;;;;;17.60;8.30;;;1.50;99.90;;;;;;4963998;28;20034;-60
2022/03/01 06:28:57;;;;;;;20.80;8.07;;;1.60;99.90;;;;;;4967643;28;20039;-58
2022/03/01 06:31:23;;;;;;;16.67;7.70;;;1.60;99.90;;;;;;4963373;28;20534;-60
2022/03/01 06:33:48;;;;;;;17.17;8.50;;;1.60;99.90;;;;;;4962523;28;20027;-60
2022/03/01 06:36:14;;;;;;;18.40;7.85;;;1.70;99.90;;;;;;4961025;28;20042;-60
2022/03/01 06:38:40;;;;;;;14.95;8.30;;;1.70;99.90;;;;;;4960492;28;20035;-60
2022/03/01 06:41:06;;;;;;;20.63;8.48;;;1.80;99.90;;;;;;4960996;28;20425;-60
2022/03/01 06:43:31;;;;;;;17.92;7.97;;;1.80;99.90;;;;;;4960390;28;20424;-60
2022/03/01 06:45:57;;;;;;;19.52;7.85;;;1.90;99.90;;;;;;4963723;28;20031;-60
2022/03/01 06:48:22;;;;;;;19.65;7.63;;;1.90;99.90;;;;;;4962264;28;20497;-59
2022/03/01 06:50:48;;;;;;;16.17;8.27;;;2.00;99.90;;;;;;4961121;28;20038;-58
2022/03/01 06:53:14;;;;;;;14.65;7.72;;;2.00;99.90;;;;;;4964089;28;20650;-60
2022/03/01 06:55:41;;;;;;;17.85;7.43;;;2.10;99.90;;;;;;4957993;28;20035;-60
2022/03/01 06:58:06;;;;;;;17.30;8.43;;;2.10;99.90;;;;;;4961875;28;20114;-60
2022/03/01 07:00:32;;;;;;;19.50;8.57;;;2.10;99.90;;;;;;4964162;28;20459;-58
2022/03/01 07:02:57;;;;;;;20.00;9.60;;;2.20;99.90;;;;;;4969388;28;20035;-59
2022/03/01 07:05:23;;;;;;;20.75;9.73;;;2.20;99.80;;;;;;4956906;28;20529;-59
2022/03/01 07:07:49;;;;;;;16.25;8.52;;;2.30;99.90;;;;;;4969079;28;20089;-59
2022/03/01 07:10:15;;;;;;;16.65;8.20;;;2.40;99.90;;;;;;4956647;28;20524;-60
2022/03/01 07:12:42;;;;;;;16.75;8.13;;;2.50;99.80;;;;;;4951401;28;20404;-57
2022/03/01 07:15:08;;;;;;;19.85;9.05;;;2.60;99.80;;;;;;4962504;28;20030;-59
2022/03/01 07:17:34;;;;;;;15.02;7.15;;;2.70;99.00;;;;;;4941348;28;20144;-60
2022/03/01 07:20:00;;;;;;;18.52;8.30;;;2.80;98.70;;;;;;4970546;28;20039;-59
2022/03/01 07:22:26;;;;;;;17.35;8.52;;;2.90;98.80;;;;;;4960021;28;20027;-60
2022/03/01 07:24:51;;;;;;;16.60;8.25;;;3.10;98.70;;;;;;4949899;28;20126;-60
2022/03/01 07:27:17;;;;;;;18.08;8.07;;;3.30;98.40;;;;;;4966355;28;20046;-61
2022/03/01 07:29:42;;;;;;;17.70;9.05;;;3.40;97.90;;;;;;4959800;28;20456;-61
2022/03/01 07:32:09;;;;;;;18.55;8.52;;;3.40;98.10;;;;;;4969688;28;20065;-61
2022/03/01 07:34:36;;;;;;;15.75;8.48;;;3.50;97.70;;;;;;4962345;28;20038;-61
2022/03/01 07:37:03;;;;;;;14.40;7.75;;;3.50;97.30;;;;;;4969235;28;20089;-61
2022/03/01 07:39:28;;;;;;;14.68;7.97;;;3.50;97.50;;;;;;4969776;28;20039;-61
2022/03/01 07:41:54;;;;;;;16.20;8.05;;;3.50;97.40;;;;;;4969267;28;20045;-60
2022/03/01 07:44:19;;;;;;;20.52;9.27;;;3.50;97.70;;;;;;4971015;28;20039;-61
2022/03/01 07:46:45;;;;;;;18.33;8.15;;;3.60;97.90;;;;;;4958536;28;20046;-61
2022/03/01 07:49:11;;;;;;;16.63;7.63;;;3.60;97.20;;;;;;4977056;28;20034;-61
2022/03/01 07:51:37;;;;;;;20.27;8.75;;;3.50;97.20;;;;;;4974278;28;20122;-60
2022/03/01 07:54:03;;;;;;;15.95;8.55;;;3.50;96.90;;;;;;4966543;28;20113;-60
2022/03/01 07:56:29;;;;;;;16.15;8.70;;;3.40;97.40;;;;;;4966635;28;20027;-60
2022/03/01 07:58:54;;;;;;;18.50;8.65;;;3.50;97.80;;;;;;4969422;28;20111;-59
2022/03/01 08:01:21;;;;;;;16.35;7.53;;;3.50;97.70;;;;;;4968966;28;20031;-60
2022/03/01 08:03:47;;;;;;;21.33;8.32;;;3.60;97.50;;;;;;4962882;28;20741;-60
2022/03/01 08:06:13;;;;;;;14.85;7.65;;;3.60;97.00;;;;;;4972096;28;20404;-60
2022/03/01 08:08:39;;;;;;;17.15;8.15;;;3.60;96.80;;;;;;4970201;28;20038;-60
2022/03/01 08:11:04;;;;;;;17.50;8.20;;;3.70;97.00;;;;;;4969799;28;20027;-60
2022/03/01 08:13:34;;;;;;;18.83;9.02;;;3.70;96.90;;;;;;4958436;28;20570;-60
2022/03/01 08:16:01;;;;;;;17.00;8.65;;;3.60;97.20;;;;;;4971729;28;20030;-58
2022/03/01 08:18:27;;;;;;;21.48;8.30;;;3.70;96.90;;;;;;4963688;28;20091;-59
2022/03/01 08:20:52;;;;;;;17.10;8.40;;;3.80;96.60;;;;;;4969759;28;20046;-59
2022/03/01 08:23:18;;;;;;;17.00;7.72;;;3.90;97.00;;;;;;4958887;28;20042;-59
2022/03/01 08:25:44;;;;;;;18.58;8.30;;;4.00;96.50;;;;;;4962171;28;20043;-59
2022/03/01 08:28:09;;;;;;;15.55;8.25;;;4.00;96.30;;;;;;4961281;28;20045;-59
2022/03/01 08:30:35;;;;;;;16.20;8.45;;;4.00;96.50;;;;;;4965633;28;20297;-60
2022/03/01 08:33:02;;;;;;;14.88;7.93;;;4.00;96.20;;;;;;4953538;28;20031;-60
2022/03/01 08:35:28;;;;;;;16.02;8.55;;;4.00;96.30;;;;;;4959528;28;20122;-58
2022/03/01 08:37:54;;;;;;;15.80;8.10;;;4.20;96.10;;;;;;4960441;28;20034;-59
2022/03/01 08:40:21;;;;;;;19.00;8.43;;;4.20;96.40;;;;;;4974147;28;20037;-60
2022/03/01 08:42:47;;;;;;;19.30;8.73;;;4.40;96.00;;;;;;4964158;28;20026;-59
2022/03/01 08:45:12;;;;;;;21.33;8.43;;;4.50;95.60;;;;;;4964931;28;20035;-59
2022/03/01 08:47:39;;;;;;;17.05;8.20;;;4.50;96.10;;;;;;4956961;28;20055;-60
2022/03/01 08:50:05;;;;;;;17.13;8.52;;;4.70;96.00;;;;;;4966485;28;20576;-61
2022/03/01 08:52:31;;;;;;;19.35;8.88;;;4.80;96.00;;;;;;4969235;28;20080;-60
2022/03/01 08:54:56;;;;;;;19.88;9.07;;;4.90;95.20;;;;;;4964060;28;20139;-59
2022/03/01 08:57:22;;;;;;;17.98;8.82;;;5.10;95.90;;;;;;4964242;28;20034;-60
2022/03/01 08:59:48;;;;;;;18.45;8.65;;;5.30;95.20;;;;;;4969618;28;20485;-61
2022/03/01 09:02:17;;;;;;;16.83;9.07;;;5.40;95.70;;;;;;4948672;28;20150;-60
2022/03/01 09:04:43;;;;;;;15.60;8.00;;;5.50;94.50;;;;;;4962776;28;20031;-59
2022/03/01 09:07:08;;;;;;;16.92;8.15;;;5.60;93.80;;;;;;4960167;28;20043;-60
2022/03/01 09:09:34;;;;;;;21.17;9.20;;;5.60;93.90;;;;;;4966957;28;20050;-60
2022/03/01 09:11:59;;;;;;;18.25;8.90;;;5.70;94.30;;;;;;4959801;28;20027;-60
2022/03/01 09:14:25;;;;;;;17.27;9.05;;;5.70;93.20;;;;;;4969105;28;20035;-60
2022/03/01 09:16:51;;;;;;;17.88;8.55;;;5.80;93.60;;;;;;4972378;28;20042;-61
2022/03/01 09:19:16;;;;;;;14.57;7.93;;;6.00;94.40;;;;;;4966235;28;20034;-60
2022/03/01 09:21:42;;;;;;;16.65;8.18;;;6.20;93.90;;;;;;4963238;28;20026;-60
2022/03/01 09:24:08;;;;;;;17.30;8.80;;;6.50;93.60;;;;;;4964093;28;20703;-60
2022/03/01 09:26:34;;;;;;;17.00;8.63;;;6.60;93.00;;;;;;4960178;28;20046;-61
2022/03/01 09:28:59;;;;;;;17.45;7.75;;;7.00;93.20;;;;;;4959323;28;20023;-60
2022/03/01 09:31:25;;;;;;;16.90;8.65;;;7.40;91.70;;;;;;4967264;28;20033;-60
2022/03/01 09:33:51;;;;;;;13.68;7.97;;;7.60;91.60;;;;;;4971565;28;20424;-60
2022/03/01 09:36:16;;;;;;;15.68;8.30;;;8.00;90.10;;;;;;5000694;23;20125;-59
2022/03/01 09:38:42;;;;;;;14.52;8.32;;;8.20;89.60;;;;;;4992072;28;20056;-59
2022/03/01 09:41:08;;;;;;;15.13;8.55;;;8.40;90.00;;;;;;4990327;28;20034;-59
2022/03/01 09:43:37;;;;;;;16.13;8.75;;;8.50;87.60;;;;;;4991215;28;20034;-57
2022/03/01 09:46:04;;;;;;;16.83;8.55;;;8.50;88.20;;;;;;4980305;28;20040;-59
2022/03/01 09:48:30;;;;;;;13.40;7.45;;;8.50;86.90;;;;;;4964439;28;20046;-59
2022/03/01 09:50:58;;;;;;;14.40;7.68;;;8.50;86.40;;;;;;4959076;28;20413;-57
2022/03/01 09:53:24;;;;;;;16.27;7.95;;;8.50;86.10;;;;;;4967800;28;20030;-57
2022/03/01 09:55:52;;;;;;;15.30;8.15;;;8.50;87.30;;;;;;4970736;28;20130;-57
2022/03/01 09:58:17;;;;;;;12.55;7.57;;;8.50;85.10;;;;;;4965459;28;20042;-58
2022/03/01 10:00:45;;;;;;;13.77;7.38;;;8.60;85.40;;;;;;4955616;28;20026;-55
2022/03/01 10:03:15;;;;;;;17.80;8.35;;;8.50;87.10;;;;;;4942976;28;20054;-60
2022/03/01 10:05:42;;;;;;;16.63;7.20;;;8.50;84.00;;;;;;4964438;28;20014;-57
2022/03/01 10:08:18;;;;;;;15.52;8.43;;;8.50;84.30;;;;;;4962356;28;20023;-58
2022/03/01 10:10:45;;;;;;;15.30;7.88;;;8.50;84.40;;;;;;4961807;28;20037;-59
2022/03/01 10:13:21;;;;;;;17.55;8.48;;;8.40;83.80;;;;;;4960078;28;20058;-58
2022/03/01 10:15:47;;;;;;;13.48;7.38;;;8.20;84.50;;;;;;4961174;28;20070;-59
2022/03/01 10:18:15;;;;;;;14.80;7.68;;;8.10;85.20;;;;;;4967157;28;20444;-58
2022/03/01 10:20:44;;;;;;;12.48;7.68;;;8.10;84.90;;;;;;4965049;28;20027;-58
2022/03/01 10:23:10;;;;;;;17.33;7.93;;;8.20;84.60;;;;;;4971763;28;20524;-57
2022/03/01 10:25:36;;;;;;;17.00;7.72;;;8.20;84.60;;;;;;4964780;28;20031;-58
2022/03/01 10:28:03;;;;;;;14.68;8.55;;;8.10;85.50;;;;;;4965726;28;20035;-58
2022/03/01 10:30:34;;;;;;;16.65;7.80;;;8.20;85.90;;;;;;4958078;28;20015;-58
2022/03/01 10:33:12;;;;;;;16.58;8.40;;;8.20;82.70;;;;;;4958178;28;20323;-59
2022/03/01 10:35:40;;;;;;;13.25;6.65;;;8.40;84.10;;;;;;4967641;28;20373;-56
2022/03/01 10:38:07;;;;;;;13.98;7.30;;;8.40;81.80;;;;;;4965652;28;20153;-56
2022/03/01 10:40:33;;;;;;;15.70;7.22;;;8.40;83.00;;;;;;4958699;28;20115;-56
2022/03/01 10:43:04;;;;;;;13.80;7.10;;;8.50;80.90;;;;;;4970273;28;20102;-58
2022/03/01 10:45:36;;;;;;;14.30;7.88;;;8.40;81.40;;;;;;4958129;28;20142;-56
2022/03/01 10:48:03;;;;;;;14.45;7.93;;;8.50;83.10;;;;;;4955453;28;20482;-59
2022/03/01 10:50:28;;;;;;;16.08;7.15;;;8.60;82.10;;;;;;4958238;28;20377;-57
2022/03/01 10:52:54;;;;;;;14.13;7.68;;;8.40;80.00;;;;;;4961415;28;20015;-58
2022/03/01 10:55:34;;;;;;;16.00;6.95;;;8.50;82.30;;;;;;4969494;28;20043;-55
2022/03/01 10:57:59;;;;;;;14.00;6.75;;;8.50;80.90;;;;;;4971229;28;20074;-59
2022/03/01 11:00:25;;;;;;;14.13;7.32;;;8.70;79.90;;;;;;4965917;28;20019;-55
2022/03/01 11:02:50;;;;;;;14.02;7.90;;;8.80;80.00;;;;;;4947377;28;20397;-57
2022/03/01 11:05:16;;;;;;;13.10;7.10;;;9.00;79.90;;;;;;4970475;28;20504;-58
2022/03/01 11:07:46;;;;;;;17.48;7.25;;;8.90;78.90;;;;;;4964562;28;20815;-58
2022/03/01 11:10:12;;;;;;;15.13;7.28;;;9.10;80.90;;;;;;4959342;28;20032;-56
2022/03/01 11:12:40;;;;;;;12.98;8.05;;;9.20;78.20;;;;;;4967905;28;20038;-56
2022/03/01 11:15:09;;;;;;;15.63;7.07;;;9.30;77.40;;;;;;4961803;28;20106;-61
2022/03/01 11:18:04;;;;;;;12.30;6.80;;;9.50;76.60;;;;;;4965581;28;20470;-57
2022/03/01 11:20:35;;;;;;;14.38;7.25;;;9.70;76.80;;;;;;4957320;28;20037;-58
2022/03/01 11:23:15;;;;;;;13.15;6.60;;;9.50;74.10;;;;;;4977562;28;20488;-59
2022/03/01 11:25:47;;;;;;;13.50;6.38;;;9.50;73.40;;;;;;4959956;28;20052;-59
2022/03/01 11:28:16;;;;;;;11.52;6.45;;;9.30;72.50;;;;;;4970768;28;20081;-54
2022/03/01 11:30:45;;;;;;;14.65;7.18;;;9.10;73.60;;;;;;4969939;28;20031;-58
2022/03/01 11:33:11;;;;;;;11.25;6.57;;;9.20;74.30;;;;;;4966393;28;20038;-58
2022/03/01 11:35:41;;;;;;;11.55;6.10;;;9.20;71.90;;;;;;4980019;28;20035;-58
2022/03/01 11:38:08;;;;;;;14.45;7.47;;;9.40;72.80;;;;;;4975931;28;20053;-57
2022/03/01 11:40:41;;;;;;;14.43;6.85;;;9.40;72.00;;;;;;4970830;28;20037;-58
2022/03/01 11:43:12;;;;;;;11.40;6.75;;;9.20;71.40;;;;;;4970649;28;20420;-59
2022/03/01 11:45:43;;;;;;;13.77;6.80;;;9.40;73.30;;;;;;4976058;28;20417;-60
2022/03/01 11:48:20;;;;;;;13.38;7.07;;;9.60;72.00;;;;;;4970816;28;20148;-56
2022/03/01 11:50:57;;;;;;;17.80;6.90;;;9.70;72.30;;;;;;4970610;28;20023;-59
2022/03/01 11:53:25;;;;;;;14.30;6.13;;;9.70;70.00;;;;;;4970859;28;20106;-57
2022/03/01 11:55:55;;;;;;;11.90;6.63;;;9.80;69.50;;;;;;4973733;28;20023;-58
2022/03/01 11:58:22;;;;;;;11.38;7.28;;;9.80;69.90;;;;;;4970550;28;20102;-58
2022/03/01 12:00:48;;;;;;;11.60;5.93;;;9.60;68.50;;;;;;4971908;28;20485;-59
2022/03/01 12:03:18;;;;;;;15.45;7.25;;;9.80;71.50;;;;;;4962246;28;20496;-59
2022/03/01 12:05:47;;;;;;;11.02;7.15;;;10.10;70.70;;;;;;4969424;28;20488;-55
2022/03/01 12:08:15;;;;;;;10.88;6.38;;;10.20;68.10;;;;;;4967015;28;20078;-60
2022/03/01 12:10:58;;;;;;;15.30;6.35;;;10.20;68.50;;;;;;4958919;28;20026;-58
2022/03/01 12:13:37;;;;;;;12.25;6.93;;;10.20;68.70;;;;;;4985672;28;20093;-60
2022/03/01 12:16:04;;;;;;;12.80;6.50;;;10.30;70.00;;;;;;4981085;28;20105;-58
2022/03/01 12:18:34;;;;;;;12.43;6.45;;;10.30;70.50;;;;;;4980310;28;20515;-60
2022/03/01 12:21:06;;;;;;;15.68;7.15;;;10.30;68.30;;;;;;4970217;28;20035;-59
2022/03/01 12:23:33;;;;;;;14.77;7.07;;;10.20;68.20;;;;;;4969162;28;20035;-59
2022/03/01 12:26:00;;;;;;;12.80;7.03;;;10.20;69.30;;;;;;4970822;28;20031;-58
2022/03/01 12:28:29;;;;;;;12.90;7.18;;;10.10;70.30;;;;;;4969588;28;20019;-59
2022/03/01 12:30:58;;;;;;;16.55;8.20;;;10.20;69.40;;;;;;4972863;28;20027;-57
2022/03/01 12:33:23;;;;;;;15.43;7.40;;;10.10;70.10;;;;;;4972098;28;20019;-59
2022/03/01 12:36:03;;;;;;;15.60;7.82;;;10.00;69.30;;;;;;4972429;28;20022;-60
2022/03/01 12:38:31;;;;;;;15.20;8.50;;;9.80;69.90;;;;;;4965469;28;20030;-56
2022/03/01 12:41:10;;;;;;;13.65;7.93;;;9.70;68.80;;;;;;4967938;28;20038;-58
2022/03/01 12:43:35;;;;;;;16.13;8.13;;;9.80;70.90;;;;;;4964680;28;20465;-54
2022/03/01 12:46:01;;;;;;;12.10;7.15;;;9.70;70.00;;;;;;4978240;28;20041;-57